Terminal Aerodrome Forecast
Issued by NWS

Home | Current Version | Previous Version | Text Only | Print | Product List | Glossary Off
Versions: 1 2 3 4 5 6 7 8 9 10 11 12 13 14 15 16 17 18 19

000
FTUS45 KGGW 181400 AAA
TAFSDY
TAF AMD
KSDY 181403Z 1814/1912 VRB06KT P6SM OVC020
     FM181600 VRB03KT P6SM OVC008
     FM190300 VRB03KT P6SM OVC015
      AMD LTD TO CLD VIS AND WIND=

USA.gov is the U.S. government's official web portal to all federal, state and local government web resources and services.